Moratuwa, Sri Lanka
Current Conditions -  °F | °C
As of 7:10 PM on Monday 20 Oct 2014 (Local Time) from VCBI Reporting Station
Thunderstorm Thunderstorm  
Wind Chill: 81°   Ceiling: 10000
Heat Index: 86°   Visibility: 6mi
Dew Point: 75°   Wind: 2mph
Humidity: 84%   Direction: NA
Pressure: 29.8"   Gusts: NA
Location:  6.81°N, 79.88°E
Report Text: VCBI 201310Z VRB02KT 9999 VCTS SCT016 FEW018CB OVC100 27/24 Q1009 NOSIG
Loading
Personal Weather Stations






























Interactive Weather Map
Tropical Storm Tracking
New forecast layout! Learn more

10-Day Weather Forecast

Advertisements
Track Severe Weather on mobile